sensor_id;sensor_type;location;lat;lon;timestamp;P1;durP1;ratioP1;P2;durP2;ratioP2
8797;SDS011;4435;50.898;4.734;2022-08-20T00:00:35;5.87;;;5.30;;
8797;SDS011;4435;50.898;4.734;2022-08-20T00:03:26;7.03;;;5.13;;
8797;SDS011;4435;50.898;4.734;2022-08-20T00:05:54;8.13;;;5.53;;
8797;SDS011;4435;50.898;4.734;2022-08-20T00:08:25;5.80;;;4.80;;
8797;SDS011;4435;50.898;4.734;2022-08-20T00:10:52;6.40;;;5.27;;
8797;SDS011;4435;50.898;4.734;2022-08-20T00:13:20;5.60;;;4.67;;
8797;SDS011;4435;50.898;4.734;2022-08-20T00:15:49;6.57;;;5.30;;
8797;SDS011;4435;50.898;4.734;2022-08-20T00:18:15;6.20;;;5.13;;
8797;SDS011;4435;50.898;4.734;2022-08-20T00:20:43;5.57;;;4.63;;
8797;SDS011;4435;50.898;4.734;2022-08-20T00:23:10;8.50;;;4.57;;
8797;SDS011;4435;50.898;4.734;2022-08-20T00:25:37;6.30;;;4.83;;
8797;SDS011;4435;50.898;4.734;2022-08-20T00:28:03;6.83;;;4.97;;
8797;SDS011;4435;50.898;4.734;2022-08-20T00:30:31;8.00;;;6.03;;
8797;SDS011;4435;50.898;4.734;2022-08-20T00:33:00;7.07;;;5.80;;
8797;SDS011;4435;50.898;4.734;2022-08-20T00:35:36;7.87;;;5.40;;
8797;SDS011;4435;50.898;4.734;2022-08-20T00:38:04;8.00;;;5.10;;
8797;SDS011;4435;50.898;4.734;2022-08-20T00:40:42;8.23;;;4.87;;
8797;SDS011;4435;50.898;4.734;2022-08-20T00:43:27;6.67;;;4.83;;
8797;SDS011;4435;50.898;4.734;2022-08-20T00:45:57;8.33;;;5.13;;
8797;SDS011;4435;50.898;4.734;2022-08-20T00:48:26;6.83;;;4.70;;
8797;SDS011;4435;50.898;4.734;2022-08-20T00:50:58;6.73;;;4.83;;
8797;SDS011;4435;50.898;4.734;2022-08-20T00:53:29;6.37;;;5.00;;
8797;SDS011;4435;50.898;4.734;2022-08-20T00:55:57;7.37;;;4.90;;
8797;SDS011;4435;50.898;4.734;2022-08-20T00:58:23;8.77;;;4.77;;
8797;SDS011;4435;50.898;4.734;2022-08-20T01:00:49;5.73;;;4.67;;
8797;SDS011;4435;50.898;4.734;2022-08-20T01:03:15;6.37;;;4.93;;
8797;SDS011;4435;50.898;4.734;2022-08-20T01:05:45;8.07;;;4.80;;
8797;SDS011;4435;50.898;4.734;2022-08-20T01:08:13;7.60;;;5.00;;
8797;SDS011;4435;50.898;4.734;2022-08-20T01:10:42;5.53;;;4.63;;
8797;SDS011;4435;50.898;4.734;2022-08-20T01:13:12;5.63;;;4.20;;
8797;SDS011;4435;50.898;4.734;2022-08-20T01:15:42;7.60;;;4.50;;
8797;SDS011;4435;50.898;4.734;2022-08-20T01:18:13;8.13;;;4.87;;
8797;SDS011;4435;50.898;4.734;2022-08-20T01:20:45;6.57;;;4.20;;
8797;SDS011;4435;50.898;4.734;2022-08-20T01:26:12;8.13;;;4.60;;
8797;SDS011;4435;50.898;4.734;2022-08-20T01:31:15;9.47;;;4.50;;
8797;SDS011;4435;50.898;4.734;2022-08-20T01:33:43;7.43;;;4.57;;
8797;SDS011;4435;50.898;4.734;2022-08-20T01:36:10;8.87;;;4.73;;
8797;SDS011;4435;50.898;4.734;2022-08-20T01:38:38;6.93;;;4.23;;
8797;SDS011;4435;50.898;4.734;2022-08-20T01:44:05;6.50;;;4.27;;
8797;SDS011;4435;50.898;4.734;2022-08-20T01:46:34;9.27;;;3.97;;
8797;SDS011;4435;50.898;4.734;2022-08-20T01:49:09;11.50;;;4.40;;
8797;SDS011;4435;50.898;4.734;2022-08-20T01:51:57;9.50;;;3.77;;
8797;SDS011;4435;50.898;4.734;2022-08-20T01:54:25;8.70;;;3.50;;
8797;SDS011;4435;50.898;4.734;2022-08-20T01:59:23;6.03;;;3.67;;
8797;SDS011;4435;50.898;4.734;2022-08-20T02:01:49;6.50;;;3.63;;
8797;SDS011;4435;50.898;4.734;2022-08-20T02:04:15;10.20;;;4.00;;
8797;SDS011;4435;50.898;4.734;2022-08-20T02:06:44;10.13;;;3.73;;
8797;SDS011;4435;50.898;4.734;2022-08-20T02:09:15;9.00;;;3.57;;
8797;SDS011;4435;50.898;4.734;2022-08-20T02:11:42;9.80;;;4.00;;
8797;SDS011;4435;50.898;4.734;2022-08-20T02:14:10;9.40;;;3.90;;
8797;SDS011;4435;50.898;4.734;2022-08-20T02:16:37;10.40;;;3.87;;
8797;SDS011;4435;50.898;4.734;2022-08-20T02:19:10;9.53;;;3.63;;
8797;SDS011;4435;50.898;4.734;2022-08-20T02:21:42;6.47;;;3.60;;
8797;SDS011;4435;50.898;4.734;2022-08-20T02:24:11;11.67;;;4.10;;
8797;SDS011;4435;50.898;4.734;2022-08-20T02:26:37;9.60;;;3.57;;
8797;SDS011;4435;50.898;4.734;2022-08-20T02:29:04;13.83;;;4.00;;
8797;SDS011;4435;50.898;4.734;2022-08-20T02:31:32;9.93;;;3.63;;
8797;SDS011;4435;50.898;4.734;2022-08-20T02:34:00;12.67;;;3.70;;
8797;SDS011;4435;50.898;4.734;2022-08-20T02:36:26;8.03;;;3.77;;
8797;SDS011;4435;50.898;4.734;2022-08-20T02:38:51;7.60;;;3.43;;
8797;SDS011;4435;50.898;4.734;2022-08-20T02:41:17;10.23;;;3.63;;
8797;SDS011;4435;50.898;4.734;2022-08-20T02:43:45;7.50;;;3.40;;
8797;SDS011;4435;50.898;4.734;2022-08-20T02:46:12;9.83;;;3.60;;
8797;SDS011;4435;50.898;4.734;2022-08-20T02:48:39;11.10;;;3.67;;
8797;SDS011;4435;50.898;4.734;2022-08-20T02:51:06;8.10;;;3.17;;
8797;SDS011;4435;50.898;4.734;2022-08-20T02:53:34;10.97;;;4.10;;
8797;SDS011;4435;50.898;4.734;2022-08-20T02:56:02;10.63;;;3.30;;
8797;SDS011;4435;50.898;4.734;2022-08-20T02:58:32;9.97;;;4.00;;
8797;SDS011;4435;50.898;4.734;2022-08-20T03:00:59;11.87;;;3.40;;
8797;SDS011;4435;50.898;4.734;2022-08-20T03:03:26;10.33;;;3.70;;
8797;SDS011;4435;50.898;4.734;2022-08-20T03:05:55;9.47;;;3.70;;
8797;SDS011;4435;50.898;4.734;2022-08-20T03:08:22;10.90;;;4.03;;
8797;SDS011;4435;50.898;4.734;2022-08-20T03:10:48;10.77;;;3.80;;
8797;SDS011;4435;50.898;4.734;2022-08-20T03:13:15;13.13;;;4.00;;
8797;SDS011;4435;50.898;4.734;2022-08-20T03:15:45;11.50;;;3.80;;
8797;SDS011;4435;50.898;4.734;2022-08-20T03:18:13;11.53;;;3.67;;
8797;SDS011;4435;50.898;4.734;2022-08-20T03:20:40;9.93;;;3.57;;
8797;SDS011;4435;50.898;4.734;2022-08-20T03:23:07;8.70;;;3.40;;
8797;SDS011;4435;50.898;4.734;2022-08-20T03:25:33;10.13;;;3.57;;
8797;SDS011;4435;50.898;4.734;2022-08-20T03:28:00;8.57;;;3.30;;
8797;SDS011;4435;50.898;4.734;2022-08-20T03:30:26;9.33;;;3.97;;
8797;SDS011;4435;50.898;4.734;2022-08-20T03:32:53;13.10;;;4.03;;
8797;SDS011;4435;50.898;4.734;2022-08-20T03:35:21;12.20;;;3.77;;
8797;SDS011;4435;50.898;4.734;2022-08-20T03:37:47;8.27;;;3.80;;
8797;SDS011;4435;50.898;4.734;2022-08-20T03:40:16;11.07;;;3.60;;
8797;SDS011;4435;50.898;4.734;2022-08-20T03:42:46;8.77;;;3.93;;
8797;SDS011;4435;50.898;4.734;2022-08-20T03:45:12;7.63;;;4.27;;
8797;SDS011;4435;50.898;4.734;2022-08-20T03:47:39;9.57;;;3.40;;
8797;SDS011;4435;50.898;4.734;2022-08-20T03:50:06;6.83;;;3.67;;
8797;SDS011;4435;50.898;4.734;2022-08-20T03:52:34;8.70;;;3.30;;
8797;SDS011;4435;50.898;4.734;2022-08-20T03:55:00;8.13;;;3.80;;
8797;SDS011;4435;50.898;4.734;2022-08-20T03:57:26;10.83;;;4.07;;
8797;SDS011;4435;50.898;4.734;2022-08-20T03:59:52;7.37;;;3.73;;
8797;SDS011;4435;50.898;4.734;2022-08-20T04:02:18;14.00;;;4.30;;
8797;SDS011;4435;50.898;4.734;2022-08-20T04:04:44;11.00;;;4.03;;
8797;SDS011;4435;50.898;4.734;2022-08-20T04:07:14;11.60;;;4.60;;
8797;SDS011;4435;50.898;4.734;2022-08-20T04:09:44;11.10;;;3.83;;
8797;SDS011;4435;50.898;4.734;2022-08-20T04:12:10;11.87;;;4.30;;
8797;SDS011;4435;50.898;4.734;2022-08-20T04:14:39;11.03;;;4.30;;
8797;SDS011;4435;50.898;4.734;2022-08-20T04:17:06;12.90;;;4.40;;
8797;SDS011;4435;50.898;4.734;2022-08-20T04:19:32;12.87;;;4.13;;
8797;SDS011;4435;50.898;4.734;2022-08-20T04:21:59;9.13;;;4.57;;
8797;SDS011;4435;50.898;4.734;2022-08-20T04:24:25;13.93;;;4.43;;
8797;SDS011;4435;50.898;4.734;2022-08-20T04:26:51;11.47;;;4.10;;
8797;SDS011;4435;50.898;4.734;2022-08-20T04:29:19;9.77;;;4.43;;
8797;SDS011;4435;50.898;4.734;2022-08-20T04:31:45;12.37;;;4.63;;
8797;SDS011;4435;50.898;4.734;2022-08-20T04:34:12;13.10;;;4.37;;
8797;SDS011;4435;50.898;4.734;2022-08-20T04:36:37;11.80;;;4.70;;
8797;SDS011;4435;50.898;4.734;2022-08-20T04:39:04;13.37;;;4.80;;
8797;SDS011;4435;50.898;4.734;2022-08-20T04:41:30;15.20;;;5.23;;
8797;SDS011;4435;50.898;4.734;2022-08-20T04:43:56;10.93;;;4.30;;
8797;SDS011;4435;50.898;4.734;2022-08-20T04:46:23;10.77;;;4.50;;
8797;SDS011;4435;50.898;4.734;2022-08-20T04:48:52;13.43;;;5.50;;
8797;SDS011;4435;50.898;4.734;2022-08-20T04:51:19;10.57;;;4.37;;
8797;SDS011;4435;50.898;4.734;2022-08-20T04:53:45;13.00;;;5.00;;
8797;SDS011;4435;50.898;4.734;2022-08-20T04:56:11;11.63;;;4.50;;
8797;SDS011;4435;50.898;4.734;2022-08-20T04:58:38;10.43;;;4.90;;
8797;SDS011;4435;50.898;4.734;2022-08-20T05:01:08;14.83;;;5.00;;
8797;SDS011;4435;50.898;4.734;2022-08-20T05:03:38;13.77;;;4.67;;
8797;SDS011;4435;50.898;4.734;2022-08-20T05:06:05;11.77;;;5.13;;
8797;SDS011;4435;50.898;4.734;2022-08-20T05:08:35;13.37;;;4.87;;
8797;SDS011;4435;50.898;4.734;2022-08-20T05:11:02;16.63;;;5.70;;
8797;SDS011;4435;50.898;4.734;2022-08-20T05:13:29;16.17;;;5.43;;
8797;SDS011;4435;50.898;4.734;2022-08-20T05:15:55;16.03;;;5.97;;
8797;SDS011;4435;50.898;4.734;2022-08-20T05:18:22;10.33;;;5.23;;
8797;SDS011;4435;50.898;4.734;2022-08-20T05:20:50;14.23;;;5.07;;
8797;SDS011;4435;50.898;4.734;2022-08-20T05:23:16;15.57;;;5.67;;
8797;SDS011;4435;50.898;4.734;2022-08-20T05:25:44;11.00;;;5.30;;
8797;SDS011;4435;50.898;4.734;2022-08-20T05:28:21;11.60;;;4.90;;
8797;SDS011;4435;50.898;4.734;2022-08-20T05:30:49;11.47;;;5.80;;
8797;SDS011;4435;50.898;4.734;2022-08-20T05:33:16;17.83;;;6.10;;
8797;SDS011;4435;50.898;4.734;2022-08-20T05:35:44;16.23;;;5.17;;
8797;SDS011;4435;50.898;4.734;2022-08-20T05:38:13;12.67;;;5.60;;
8797;SDS011;4435;50.898;4.734;2022-08-20T05:40:41;12.03;;;5.53;;
8797;SDS011;4435;50.898;4.734;2022-08-20T05:43:07;12.43;;;4.93;;
8797;SDS011;4435;50.898;4.734;2022-08-20T05:45:34;13.23;;;5.60;;
8797;SDS011;4435;50.898;4.734;2022-08-20T05:48:08;13.40;;;5.50;;
8797;SDS011;4435;50.898;4.734;2022-08-20T05:50:37;14.83;;;5.30;;
8797;SDS011;4435;50.898;4.734;2022-08-20T05:53:04;15.10;;;5.63;;
8797;SDS011;4435;50.898;4.734;2022-08-20T05:55:30;15.30;;;5.93;;
8797;SDS011;4435;50.898;4.734;2022-08-20T05:57:57;12.23;;;5.40;;
8797;SDS011;4435;50.898;4.734;2022-08-20T06:00:23;14.50;;;5.70;;
8797;SDS011;4435;50.898;4.734;2022-08-20T06:02:50;15.43;;;5.63;;
8797;SDS011;4435;50.898;4.734;2022-08-20T06:05:48;13.47;;;5.57;;
8797;SDS011;4435;50.898;4.734;2022-08-20T06:08:15;13.73;;;5.33;;
8797;SDS011;4435;50.898;4.734;2022-08-20T06:10:42;14.77;;;5.77;;
8797;SDS011;4435;50.898;4.734;2022-08-20T06:13:08;14.60;;;6.17;;
8797;SDS011;4435;50.898;4.734;2022-08-20T06:15:35;14.77;;;5.70;;
8797;SDS011;4435;50.898;4.734;2022-08-20T06:18:03;13.50;;;6.17;;
8797;SDS011;4435;50.898;4.734;2022-08-20T06:20:32;11.77;;;5.63;;
8797;SDS011;4435;50.898;4.734;2022-08-20T06:22:59;11.73;;;6.47;;
8797;SDS011;4435;50.898;4.734;2022-08-20T06:25:24;12.93;;;5.63;;
8797;SDS011;4435;50.898;4.734;2022-08-20T06:27:50;18.00;;;6.47;;
8797;SDS011;4435;50.898;4.734;2022-08-20T06:30:16;15.07;;;6.13;;
8797;SDS011;4435;50.898;4.734;2022-08-20T06:32:42;14.53;;;6.33;;
8797;SDS011;4435;50.898;4.734;2022-08-20T06:35:08;15.37;;;6.27;;
8797;SDS011;4435;50.898;4.734;2022-08-20T06:37:36;20.00;;;6.77;;
8797;SDS011;4435;50.898;4.734;2022-08-20T06:42:37;13.17;;;6.47;;
8797;SDS011;4435;50.898;4.734;2022-08-20T06:45:07;15.83;;;6.23;;
8797;SDS011;4435;50.898;4.734;2022-08-20T06:47:41;14.27;;;6.70;;
8797;SDS011;4435;50.898;4.734;2022-08-20T06:50:09;22.80;;;7.10;;
8797;SDS011;4435;50.898;4.734;2022-08-20T06:52:38;21.23;;;7.07;;
8797;SDS011;4435;50.898;4.734;2022-08-20T06:55:05;23.40;;;7.30;;
8797;SDS011;4435;50.898;4.734;2022-08-20T06:57:34;18.63;;;7.43;;
8797;SDS011;4435;50.898;4.734;2022-08-20T07:00:02;15.70;;;7.30;;
8797;SDS011;4435;50.898;4.734;2022-08-20T07:02:30;25.60;;;8.20;;
8797;SDS011;4435;50.898;4.734;2022-08-20T07:04:57;19.13;;;7.73;;
8797;SDS011;4435;50.898;4.734;2022-08-20T07:07:23;23.97;;;8.43;;
8797;SDS011;4435;50.898;4.734;2022-08-20T07:09:49;17.40;;;7.37;;
8797;SDS011;4435;50.898;4.734;2022-08-20T07:12:15;18.40;;;7.13;;
8797;SDS011;4435;50.898;4.734;2022-08-20T07:14:41;26.20;;;8.23;;
8797;SDS011;4435;50.898;4.734;2022-08-20T07:17:07;20.73;;;7.97;;
8797;SDS011;4435;50.898;4.734;2022-08-20T07:19:35;22.83;;;7.80;;
8797;SDS011;4435;50.898;4.734;2022-08-20T07:22:01;21.30;;;7.53;;
8797;SDS011;4435;50.898;4.734;2022-08-20T07:24:27;19.80;;;7.97;;
8797;SDS011;4435;50.898;4.734;2022-08-20T07:26:53;23.47;;;8.63;;
8797;SDS011;4435;50.898;4.734;2022-08-20T07:29:19;24.13;;;8.90;;
8797;SDS011;4435;50.898;4.734;2022-08-20T07:31:44;23.03;;;9.93;;
8797;SDS011;4435;50.898;4.734;2022-08-20T07:34:28;25.50;;;9.57;;
8797;SDS011;4435;50.898;4.734;2022-08-20T07:36:58;25.10;;;9.57;;
8797;SDS011;4435;50.898;4.734;2022-08-20T07:39:24;28.03;;;9.67;;
8797;SDS011;4435;50.898;4.734;2022-08-20T07:41:50;22.17;;;9.03;;
8797;SDS011;4435;50.898;4.734;2022-08-20T07:44:27;26.43;;;10.03;;
8797;SDS011;4435;50.898;4.734;2022-08-20T07:46:54;25.50;;;9.27;;
8797;SDS011;4435;50.898;4.734;2022-08-20T07:49:22;22.57;;;8.97;;
8797;SDS011;4435;50.898;4.734;2022-08-20T07:51:47;21.13;;;8.83;;
8797;SDS011;4435;50.898;4.734;2022-08-20T07:54:13;23.13;;;8.40;;
8797;SDS011;4435;50.898;4.734;2022-08-20T07:56:39;21.10;;;8.67;;
8797;SDS011;4435;50.898;4.734;2022-08-20T07:59:04;21.53;;;8.53;;
8797;SDS011;4435;50.898;4.734;2022-08-20T08:01:30;19.67;;;9.10;;
8797;SDS011;4435;50.898;4.734;2022-08-20T08:03:57;20.37;;;9.87;;
8797;SDS011;4435;50.898;4.734;2022-08-20T08:06:23;26.40;;;9.97;;
8797;SDS011;4435;50.898;4.734;2022-08-20T08:08:51;22.53;;;9.87;;
8797;SDS011;4435;50.898;4.734;2022-08-20T08:11:18;20.00;;;8.93;;
8797;SDS011;4435;50.898;4.734;2022-08-20T08:13:44;19.60;;;8.77;;
8797;SDS011;4435;50.898;4.734;2022-08-20T08:16:11;18.23;;;8.27;;
8797;SDS011;4435;50.898;4.734;2022-08-20T08:18:41;19.63;;;8.93;;
8797;SDS011;4435;50.898;4.734;2022-08-20T08:21:10;19.60;;;9.13;;
8797;SDS011;4435;50.898;4.734;2022-08-20T08:23:37;19.50;;;9.60;;
8797;SDS011;4435;50.898;4.734;2022-08-20T08:26:08;17.97;;;8.97;;
8797;SDS011;4435;50.898;4.734;2022-08-20T08:28:33;16.00;;;8.67;;
8797;SDS011;4435;50.898;4.734;2022-08-20T08:31:01;23.90;;;9.93;;
8797;SDS011;4435;50.898;4.734;2022-08-20T08:33:27;22.70;;;9.10;;
8797;SDS011;4435;50.898;4.734;2022-08-20T08:35:57;13.53;;;9.63;;
8797;SDS011;4435;50.898;4.734;2022-08-20T08:38:27;19.20;;;10.53;;
8797;SDS011;4435;50.898;4.734;2022-08-20T08:40:55;20.03;;;10.50;;
8797;SDS011;4435;50.898;4.734;2022-08-20T08:43:24;20.43;;;9.73;;
8797;SDS011;4435;50.898;4.734;2022-08-20T08:45:56;20.73;;;10.20;;
8797;SDS011;4435;50.898;4.734;2022-08-20T08:48:32;22.53;;;10.80;;
8797;SDS011;4435;50.898;4.734;2022-08-20T08:51:02;15.30;;;10.53;;
8797;SDS011;4435;50.898;4.734;2022-08-20T08:53:37;23.47;;;10.60;;
8797;SDS011;4435;50.898;4.734;2022-08-20T08:56:19;13.87;;;10.17;;
8797;SDS011;4435;50.898;4.734;2022-08-20T08:58:50;14.87;;;10.13;;
8797;SDS011;4435;50.898;4.734;2022-08-20T09:01:20;16.90;;;9.17;;
8797;SDS011;4435;50.898;4.734;2022-08-20T09:03:48;14.87;;;7.83;;
8797;SDS011;4435;50.898;4.734;2022-08-20T09:06:17;15.40;;;8.30;;
8797;SDS011;4435;50.898;4.734;2022-08-20T09:08:51;16.00;;;8.13;;
8797;SDS011;4435;50.898;4.734;2022-08-20T09:11:26;12.10;;;7.80;;
8797;SDS011;4435;50.898;4.734;2022-08-20T09:13:53;12.27;;;7.73;;
8797;SDS011;4435;50.898;4.734;2022-08-20T09:16:19;12.07;;;6.33;;
8797;SDS011;4435;50.898;4.734;2022-08-20T09:18:47;11.27;;;5.50;;
8797;SDS011;4435;50.898;4.734;2022-08-20T09:21:13;14.63;;;5.20;;
8797;SDS011;4435;50.898;4.734;2022-08-20T09:23:39;10.67;;;5.00;;
8797;SDS011;4435;50.898;4.734;2022-08-20T09:26:05;7.67;;;4.20;;
8797;SDS011;4435;50.898;4.734;2022-08-20T09:28:31;8.80;;;5.00;;
8797;SDS011;4435;50.898;4.734;2022-08-20T09:30:58;9.17;;;4.60;;
8797;SDS011;4435;50.898;4.734;2022-08-20T09:33:24;12.73;;;4.53;;
8797;SDS011;4435;50.898;4.734;2022-08-20T09:35:49;12.93;;;4.40;;
8797;SDS011;4435;50.898;4.734;2022-08-20T09:38:15;9.67;;;3.80;;
8797;SDS011;4435;50.898;4.734;2022-08-20T09:40:41;10.53;;;3.70;;
8797;SDS011;4435;50.898;4.734;2022-08-20T09:43:07;8.10;;;3.40;;
8797;SDS011;4435;50.898;4.734;2022-08-20T09:45:33;6.60;;;2.87;;
8797;SDS011;4435;50.898;4.734;2022-08-20T09:48:00;7.53;;;2.80;;
8797;SDS011;4435;50.898;4.734;2022-08-20T09:50:27;9.70;;;2.93;;
8797;SDS011;4435;50.898;4.734;2022-08-20T09:52:55;8.93;;;2.57;;
8797;SDS011;4435;50.898;4.734;2022-08-20T09:57:58;5.90;;;2.73;;
8797;SDS011;4435;50.898;4.734;2022-08-20T10:00:26;7.07;;;3.07;;
8797;SDS011;4435;50.898;4.734;2022-08-20T10:02:52;9.57;;;3.27;;
8797;SDS011;4435;50.898;4.734;2022-08-20T10:05:17;7.57;;;2.90;;
8797;SDS011;4435;50.898;4.734;2022-08-20T10:07:43;7.73;;;2.63;;
8797;SDS011;4435;50.898;4.734;2022-08-20T10:10:10;5.47;;;2.57;;
8797;SDS011;4435;50.898;4.734;2022-08-20T10:12:37;7.83;;;3.10;;
8797;SDS011;4435;50.898;4.734;2022-08-20T10:15:05;6.40;;;3.20;;
8797;SDS011;4435;50.898;4.734;2022-08-20T10:17:31;7.90;;;3.07;;
8797;SDS011;4435;50.898;4.734;2022-08-20T10:20:00;9.07;;;2.70;;
8797;SDS011;4435;50.898;4.734;2022-08-20T10:22:26;6.80;;;2.90;;
8797;SDS011;4435;50.898;4.734;2022-08-20T10:24:52;8.17;;;2.93;;
8797;SDS011;4435;50.898;4.734;2022-08-20T10:27:17;7.20;;;2.80;;
8797;SDS011;4435;50.898;4.734;2022-08-20T10:29:43;6.80;;;2.70;;
8797;SDS011;4435;50.898;4.734;2022-08-20T10:32:12;8.80;;;2.90;;
8797;SDS011;4435;50.898;4.734;2022-08-20T10:34:40;11.50;;;3.47;;
8797;SDS011;4435;50.898;4.734;2022-08-20T10:37:07;6.37;;;2.60;;
8797;SDS011;4435;50.898;4.734;2022-08-20T10:39:34;5.27;;;2.47;;
8797;SDS011;4435;50.898;4.734;2022-08-20T10:42:00;5.07;;;2.50;;
8797;SDS011;4435;50.898;4.734;2022-08-20T10:44:26;6.87;;;2.43;;
8797;SDS011;4435;50.898;4.734;2022-08-20T10:46:52;12.03;;;2.73;;
8797;SDS011;4435;50.898;4.734;2022-08-20T10:49:17;20.60;;;3.07;;
8797;SDS011;4435;50.898;4.734;2022-08-20T11:38:20;9.33;;;2.43;;
8797;SDS011;4435;50.898;4.734;2022-08-20T11:40:46;5.77;;;2.50;;
8797;SDS011;4435;50.898;4.734;2022-08-20T11:43:12;10.73;;;2.87;;
8797;SDS011;4435;50.898;4.734;2022-08-20T11:45:39;5.73;;;2.40;;
8797;SDS011;4435;50.898;4.734;2022-08-20T11:48:04;6.07;;;2.70;;
8797;SDS011;4435;50.898;4.734;2022-08-20T11:50:30;6.27;;;2.53;;
8797;SDS011;4435;50.898;4.734;2022-08-20T11:52:56;5.33;;;2.37;;
8797;SDS011;4435;50.898;4.734;2022-08-20T11:55:22;7.47;;;2.60;;
8797;SDS011;4435;50.898;4.734;2022-08-20T11:57:47;6.50;;;2.33;;
8797;SDS011;4435;50.898;4.734;2022-08-20T12:00:19;6.00;;;2.40;;
8797;SDS011;4435;50.898;4.734;2022-08-20T12:02:46;6.37;;;2.57;;
8797;SDS011;4435;50.898;4.734;2022-08-20T12:05:13;7.60;;;2.50;;
8797;SDS011;4435;50.898;4.734;2022-08-20T12:07:39;5.63;;;2.30;;
8797;SDS011;4435;50.898;4.734;2022-08-20T12:10:05;6.77;;;2.50;;
8797;SDS011;4435;50.898;4.734;2022-08-20T12:12:34;9.30;;;2.97;;
8797;SDS011;4435;50.898;4.734;2022-08-20T12:15:02;7.30;;;2.43;;
8797;SDS011;4435;50.898;4.734;2022-08-20T12:17:29;6.37;;;2.80;;
8797;SDS011;4435;50.898;4.734;2022-08-20T12:19:57;6.70;;;2.60;;
8797;SDS011;4435;50.898;4.734;2022-08-20T12:22:24;7.80;;;2.60;;
8797;SDS011;4435;50.898;4.734;2022-08-20T12:24:51;6.70;;;2.57;;
8797;SDS011;4435;50.898;4.734;2022-08-20T12:29:49;6.27;;;2.43;;
8797;SDS011;4435;50.898;4.734;2022-08-20T12:32:17;6.07;;;2.57;;
8797;SDS011;4435;50.898;4.734;2022-08-20T12:34:44;9.03;;;2.63;;
8797;SDS011;4435;50.898;4.734;2022-08-20T12:37:11;5.80;;;2.40;;
8797;SDS011;4435;50.898;4.734;2022-08-20T12:39:40;4.10;;;2.10;;
8797;SDS011;4435;50.898;4.734;2022-08-20T12:42:08;4.87;;;2.40;;
8797;SDS011;4435;50.898;4.734;2022-08-20T12:44:35;8.20;;;2.40;;
8797;SDS011;4435;50.898;4.734;2022-08-20T12:47:14;7.53;;;2.60;;
8797;SDS011;4435;50.898;4.734;2022-08-20T12:49:45;6.23;;;2.50;;
8797;SDS011;4435;50.898;4.734;2022-08-20T12:52:14;8.03;;;2.30;;
8797;SDS011;4435;50.898;4.734;2022-08-20T12:54:41;7.17;;;2.10;;
8797;SDS011;4435;50.898;4.734;2022-08-20T12:57:12;6.57;;;2.30;;
8797;SDS011;4435;50.898;4.734;2022-08-20T12:59:47;6.20;;;2.40;;
8797;SDS011;4435;50.898;4.734;2022-08-20T13:02:13;5.90;;;2.30;;
8797;SDS011;4435;50.898;4.734;2022-08-20T13:04:41;4.67;;;2.30;;
8797;SDS011;4435;50.898;4.734;2022-08-20T13:07:09;5.97;;;2.20;;
8797;SDS011;4435;50.898;4.734;2022-08-20T13:09:35;6.57;;;2.70;;
8797;SDS011;4435;50.898;4.734;2022-08-20T13:12:01;4.63;;;2.20;;
8797;SDS011;4435;50.898;4.734;2022-08-20T13:14:27;6.30;;;2.40;;
8797;SDS011;4435;50.898;4.734;2022-08-20T13:16:56;3.73;;;2.20;;
8797;SDS011;4435;50.898;4.734;2022-08-20T13:19:24;7.77;;;2.40;;
8797;SDS011;4435;50.898;4.734;2022-08-20T13:21:51;6.60;;;2.23;;
8797;SDS011;4435;50.898;4.734;2022-08-20T13:24:17;7.47;;;2.90;;
8797;SDS011;4435;50.898;4.734;2022-08-20T13:26:43;6.43;;;2.30;;
8797;SDS011;4435;50.898;4.734;2022-08-20T13:29:09;7.13;;;2.27;;
8797;SDS011;4435;50.898;4.734;2022-08-20T13:31:35;5.57;;;2.33;;
8797;SDS011;4435;50.898;4.734;2022-08-20T13:34:01;3.63;;;1.97;;
8797;SDS011;4435;50.898;4.734;2022-08-20T13:36:27;4.57;;;2.20;;
8797;SDS011;4435;50.898;4.734;2022-08-20T13:38:52;5.53;;;2.37;;
8797;SDS011;4435;50.898;4.734;2022-08-20T13:41:18;4.80;;;2.43;;
8797;SDS011;4435;50.898;4.734;2022-08-20T13:43:44;9.53;;;2.27;;
8797;SDS011;4435;50.898;4.734;2022-08-20T13:46:10;3.37;;;1.90;;
8797;SDS011;4435;50.898;4.734;2022-08-20T13:48:35;7.53;;;2.17;;
8797;SDS011;4435;50.898;4.734;2022-08-20T13:51:01;6.07;;;2.10;;
8797;SDS011;4435;50.898;4.734;2022-08-20T13:53:27;7.17;;;2.40;;
8797;SDS011;4435;50.898;4.734;2022-08-20T13:55:53;7.97;;;2.60;;
8797;SDS011;4435;50.898;4.734;2022-08-20T13:58:19;4.53;;;2.10;;
8797;SDS011;4435;50.898;4.734;2022-08-20T14:00:46;4.40;;;1.67;;
8797;SDS011;4435;50.898;4.734;2022-08-20T14:03:12;5.27;;;2.13;;
8797;SDS011;4435;50.898;4.734;2022-08-20T14:05:38;3.43;;;1.93;;
8797;SDS011;4435;50.898;4.734;2022-08-20T14:08:06;4.63;;;2.00;;
8797;SDS011;4435;50.898;4.734;2022-08-20T14:10:38;7.40;;;2.20;;
8797;SDS011;4435;50.898;4.734;2022-08-20T14:13:04;5.10;;;2.00;;
8797;SDS011;4435;50.898;4.734;2022-08-20T14:15:31;4.73;;;2.03;;
8797;SDS011;4435;50.898;4.734;2022-08-20T14:17:58;3.37;;;1.90;;
8797;SDS011;4435;50.898;4.734;2022-08-20T14:20:26;3.57;;;2.17;;
8797;SDS011;4435;50.898;4.734;2022-08-20T14:22:54;4.70;;;2.10;;
8797;SDS011;4435;50.898;4.734;2022-08-20T14:25:20;3.27;;;1.73;;
8797;SDS011;4435;50.898;4.734;2022-08-20T14:27:47;7.27;;;2.20;;
8797;SDS011;4435;50.898;4.734;2022-08-20T14:30:14;6.40;;;2.10;;
8797;SDS011;4435;50.898;4.734;2022-08-20T14:32:42;4.80;;;2.40;;
8797;SDS011;4435;50.898;4.734;2022-08-20T14:35:08;4.00;;;2.00;;
8797;SDS011;4435;50.898;4.734;2022-08-20T14:37:40;5.13;;;1.83;;
8797;SDS011;4435;50.898;4.734;2022-08-20T14:40:09;3.17;;;1.90;;
8797;SDS011;4435;50.898;4.734;2022-08-20T14:42:37;5.40;;;2.00;;
8797;SDS011;4435;50.898;4.734;2022-08-20T14:45:04;4.97;;;2.30;;
8797;SDS011;4435;50.898;4.734;2022-08-20T14:47:36;6.27;;;2.00;;
8797;SDS011;4435;50.898;4.734;2022-08-20T14:50:18;7.73;;;2.00;;
8797;SDS011;4435;50.898;4.734;2022-08-20T14:52:50;5.27;;;2.10;;
8797;SDS011;4435;50.898;4.734;2022-08-20T14:55:17;4.67;;;1.90;;
8797;SDS011;4435;50.898;4.734;2022-08-20T14:57:44;5.87;;;2.20;;
8797;SDS011;4435;50.898;4.734;2022-08-20T15:00:13;6.10;;;2.27;;
8797;SDS011;4435;50.898;4.734;2022-08-20T15:02:42;4.37;;;2.47;;
8797;SDS011;4435;50.898;4.734;2022-08-20T15:05:09;6.97;;;2.60;;
8797;SDS011;4435;50.898;4.734;2022-08-20T15:07:36;4.87;;;2.20;;
8797;SDS011;4435;50.898;4.734;2022-08-20T15:10:04;4.17;;;1.90;;
8797;SDS011;4435;50.898;4.734;2022-08-20T15:12:33;4.80;;;2.10;;
8797;SDS011;4435;50.898;4.734;2022-08-20T15:15:01;5.97;;;1.80;;
8797;SDS011;4435;50.898;4.734;2022-08-20T15:17:28;3.10;;;1.80;;
8797;SDS011;4435;50.898;4.734;2022-08-20T15:19:55;3.40;;;1.90;;
8797;SDS011;4435;50.898;4.734;2022-08-20T15:22:22;3.77;;;1.83;;
8797;SDS011;4435;50.898;4.734;2022-08-20T15:24:48;3.47;;;1.80;;
8797;SDS011;4435;50.898;4.734;2022-08-20T15:27:21;5.90;;;2.00;;
8797;SDS011;4435;50.898;4.734;2022-08-20T15:29:48;4.57;;;1.80;;
8797;SDS011;4435;50.898;4.734;2022-08-20T15:32:15;5.10;;;2.10;;
8797;SDS011;4435;50.898;4.734;2022-08-20T15:34:41;4.73;;;2.00;;
8797;SDS011;4435;50.898;4.734;2022-08-20T15:37:08;5.87;;;2.50;;
8797;SDS011;4435;50.898;4.734;2022-08-20T15:39:36;5.37;;;2.27;;
8797;SDS011;4435;50.898;4.734;2022-08-20T15:42:02;3.93;;;2.17;;
8797;SDS011;4435;50.898;4.734;2022-08-20T15:44:29;8.43;;;2.50;;
8797;SDS011;4435;50.898;4.734;2022-08-20T15:46:57;3.47;;;1.93;;
8797;SDS011;4435;50.898;4.734;2022-08-20T15:49:42;2.70;;;1.80;;
8797;SDS011;4435;50.898;4.734;2022-08-20T15:52:08;4.23;;;2.00;;
8797;SDS011;4435;50.898;4.734;2022-08-20T15:54:35;4.70;;;1.80;;
8797;SDS011;4435;50.898;4.734;2022-08-20T15:57:06;5.37;;;1.97;;
8797;SDS011;4435;50.898;4.734;2022-08-20T16:05:32;7.07;;;2.27;;
8797;SDS011;4435;50.898;4.734;2022-08-20T16:14:10;5.20;;;2.17;;
8797;SDS011;4435;50.898;4.734;2022-08-20T16:17:27;3.43;;;2.03;;
8797;SDS011;4435;50.898;4.734;2022-08-20T16:19:39;5.37;;;2.10;;
8797;SDS011;4435;50.898;4.734;2022-08-20T16:22:20;4.50;;;1.73;;
8797;SDS011;4435;50.898;4.734;2022-08-20T16:24:46;4.43;;;1.83;;
8797;SDS011;4435;50.898;4.734;2022-08-20T16:27:19;3.60;;;1.70;;
8797;SDS011;4435;50.898;4.734;2022-08-20T16:34:59;5.37;;;2.50;;
8797;SDS011;4435;50.898;4.734;2022-08-20T16:37:34;3.53;;;1.97;;